sensor_id;sensor_type;location;lat;lon;timestamp;P1;durP1;ratioP1;P2;durP2;ratioP2
24663;SDS011;12791;50.992;13.788;2022-07-29T00:00:23;2.85;;;0.80;;
24663;SDS011;12791;50.992;13.788;2022-07-29T00:02:49;2.00;;;0.77;;
24663;SDS011;12791;50.992;13.788;2022-07-29T00:05:16;0.80;;;0.80;;
24663;SDS011;12791;50.992;13.788;2022-07-29T00:07:43;3.13;;;0.90;;
24663;SDS011;12791;50.992;13.788;2022-07-29T00:10:09;2.38;;;0.80;;
24663;SDS011;12791;50.992;13.788;2022-07-29T00:12:37;2.75;;;0.93;;
24663;SDS011;12791;50.992;13.788;2022-07-29T00:15:04;1.85;;;0.85;;
24663;SDS011;12791;50.992;13.788;2022-07-29T00:17:32;1.95;;;0.82;;
24663;SDS011;12791;50.992;13.788;2022-07-29T00:19:59;2.17;;;0.90;;
24663;SDS011;12791;50.992;13.788;2022-07-29T00:22:25;1.52;;;0.95;;
24663;SDS011;12791;50.992;13.788;2022-07-29T00:24:52;0.85;;;0.82;;
24663;SDS011;12791;50.992;13.788;2022-07-29T00:27:18;3.40;;;1.17;;
24663;SDS011;12791;50.992;13.788;2022-07-29T00:29:46;4.15;;;1.10;;
24663;SDS011;12791;50.992;13.788;2022-07-29T00:32:13;2.90;;;1.20;;
24663;SDS011;12791;50.992;13.788;2022-07-29T00:34:40;1.73;;;1.08;;
24663;SDS011;12791;50.992;13.788;2022-07-29T00:37:24;1.60;;;1.10;;
24663;SDS011;12791;50.992;13.788;2022-07-29T00:39:50;4.85;;;1.17;;
24663;SDS011;12791;50.992;13.788;2022-07-29T00:42:17;3.65;;;0.95;;
24663;SDS011;12791;50.992;13.788;2022-07-29T00:44:44;4.28;;;1.00;;
24663;SDS011;12791;50.992;13.788;2022-07-29T00:47:12;2.22;;;0.90;;
24663;SDS011;12791;50.992;13.788;2022-07-29T00:49:39;1.27;;;0.95;;
24663;SDS011;12791;50.992;13.788;2022-07-29T00:52:07;1.60;;;1.02;;
24663;SDS011;12791;50.992;13.788;2022-07-29T00:54:34;5.72;;;1.10;;
24663;SDS011;12791;50.992;13.788;2022-07-29T00:57:02;1.75;;;1.20;;
24663;SDS011;12791;50.992;13.788;2022-07-29T00:59:29;2.05;;;1.00;;
24663;SDS011;12791;50.992;13.788;2022-07-29T01:01:55;4.63;;;1.33;;
24663;SDS011;12791;50.992;13.788;2022-07-29T01:04:23;2.17;;;1.00;;
24663;SDS011;12791;50.992;13.788;2022-07-29T01:06:50;1.40;;;1.13;;
24663;SDS011;12791;50.992;13.788;2022-07-29T01:09:19;3.50;;;1.33;;
24663;SDS011;12791;50.992;13.788;2022-07-29T01:11:46;3.08;;;1.27;;
24663;SDS011;12791;50.992;13.788;2022-07-29T01:14:13;3.28;;;1.38;;
24663;SDS011;12791;50.992;13.788;2022-07-29T01:16:42;2.92;;;1.48;;
24663;SDS011;12791;50.992;13.788;2022-07-29T01:19:18;2.78;;;1.73;;
24663;SDS011;12791;50.992;13.788;2022-07-29T01:21:59;2.60;;;1.83;;
24663;SDS011;12791;50.992;13.788;2022-07-29T01:24:42;5.85;;;2.17;;
24663;SDS011;12791;50.992;13.788;2022-07-29T01:27:29;4.47;;;2.90;;
24663;SDS011;12791;50.992;13.788;2022-07-29T01:30:08;6.78;;;3.35;;
24663;SDS011;12791;50.992;13.788;2022-07-29T01:32:36;3.20;;;2.90;;
24663;SDS011;12791;50.992;13.788;2022-07-29T01:35:06;4.00;;;2.78;;
24663;SDS011;12791;50.992;13.788;2022-07-29T01:37:42;4.55;;;3.20;;
24663;SDS011;12791;50.992;13.788;2022-07-29T01:40:11;5.50;;;3.50;;
24663;SDS011;12791;50.992;13.788;2022-07-29T01:42:44;4.95;;;3.72;;
24663;SDS011;12791;50.992;13.788;2022-07-29T01:45:18;7.30;;;4.60;;
24663;SDS011;12791;50.992;13.788;2022-07-29T01:47:50;6.38;;;4.10;;
24663;SDS011;12791;50.992;13.788;2022-07-29T01:50:25;7.25;;;4.35;;
24663;SDS011;12791;50.992;13.788;2022-07-29T01:52:56;5.47;;;4.05;;
24663;SDS011;12791;50.992;13.788;2022-07-29T01:55:26;6.65;;;3.60;;
24663;SDS011;12791;50.992;13.788;2022-07-29T01:57:56;4.20;;;3.63;;
24663;SDS011;12791;50.992;13.788;2022-07-29T02:00:25;7.05;;;4.78;;
24663;SDS011;12791;50.992;13.788;2022-07-29T02:02:53;7.35;;;5.28;;
24663;SDS011;12791;50.992;13.788;2022-07-29T02:05:22;9.40;;;5.38;;
24663;SDS011;12791;50.992;13.788;2022-07-29T02:07:49;8.95;;;6.15;;
24663;SDS011;12791;50.992;13.788;2022-07-29T02:10:19;8.65;;;7.18;;
24663;SDS011;12791;50.992;13.788;2022-07-29T02:12:49;9.32;;;7.65;;
24663;SDS011;12791;50.992;13.788;2022-07-29T02:15:17;12.05;;;8.27;;
24663;SDS011;12791;50.992;13.788;2022-07-29T02:17:49;10.50;;;7.45;;
24663;SDS011;12791;50.992;13.788;2022-07-29T02:20:19;9.50;;;7.28;;
24663;SDS011;12791;50.992;13.788;2022-07-29T02:22:45;11.40;;;7.90;;
24663;SDS011;12791;50.992;13.788;2022-07-29T02:25:14;8.57;;;7.78;;
24663;SDS011;12791;50.992;13.788;2022-07-29T02:27:43;11.23;;;7.40;;
24663;SDS011;12791;50.992;13.788;2022-07-29T02:30:11;9.00;;;7.35;;
24663;SDS011;12791;50.992;13.788;2022-07-29T02:32:39;8.95;;;6.95;;
24663;SDS011;12791;50.992;13.788;2022-07-29T02:35:08;9.68;;;7.80;;
24663;SDS011;12791;50.992;13.788;2022-07-29T02:37:36;9.95;;;7.53;;
24663;SDS011;12791;50.992;13.788;2022-07-29T02:40:04;11.35;;;8.10;;
24663;SDS011;12791;50.992;13.788;2022-07-29T02:42:34;9.23;;;7.47;;
24663;SDS011;12791;50.992;13.788;2022-07-29T02:45:03;9.43;;;8.10;;
24663;SDS011;12791;50.992;13.788;2022-07-29T02:47:33;7.82;;;6.95;;
24663;SDS011;12791;50.992;13.788;2022-07-29T02:50:04;8.70;;;7.18;;
24663;SDS011;12791;50.992;13.788;2022-07-29T02:52:39;7.70;;;6.93;;
24663;SDS011;12791;50.992;13.788;2022-07-29T02:55:10;8.88;;;7.50;;
24663;SDS011;12791;50.992;13.788;2022-07-29T02:57:46;9.00;;;6.30;;
24663;SDS011;12791;50.992;13.788;2022-07-29T03:00:15;10.55;;;7.07;;
24663;SDS011;12791;50.992;13.788;2022-07-29T03:02:43;10.55;;;7.18;;
24663;SDS011;12791;50.992;13.788;2022-07-29T03:05:13;7.07;;;6.13;;
24663;SDS011;12791;50.992;13.788;2022-07-29T03:07:45;9.60;;;6.30;;
24663;SDS011;12791;50.992;13.788;2022-07-29T03:10:15;9.02;;;6.30;;
24663;SDS011;12791;50.992;13.788;2022-07-29T03:12:42;8.48;;;6.72;;
24663;SDS011;12791;50.992;13.788;2022-07-29T03:15:09;9.02;;;6.05;;
24663;SDS011;12791;50.992;13.788;2022-07-29T03:17:36;7.05;;;6.22;;
24663;SDS011;12791;50.992;13.788;2022-07-29T03:20:06;6.63;;;5.40;;
24663;SDS011;12791;50.992;13.788;2022-07-29T03:22:33;7.40;;;5.70;;
24663;SDS011;12791;50.992;13.788;2022-07-29T03:25:09;8.45;;;6.50;;
24663;SDS011;12791;50.992;13.788;2022-07-29T03:27:37;7.60;;;6.00;;
24663;SDS011;12791;50.992;13.788;2022-07-29T03:30:04;6.15;;;5.55;;
24663;SDS011;12791;50.992;13.788;2022-07-29T03:32:31;6.93;;;5.30;;
24663;SDS011;12791;50.992;13.788;2022-07-29T03:34:58;7.43;;;6.10;;
24663;SDS011;12791;50.992;13.788;2022-07-29T03:37:25;8.63;;;6.63;;
24663;SDS011;12791;50.992;13.788;2022-07-29T03:39:52;9.30;;;6.82;;
24663;SDS011;12791;50.992;13.788;2022-07-29T03:42:23;8.20;;;6.38;;
24663;SDS011;12791;50.992;13.788;2022-07-29T03:44:53;8.50;;;6.95;;
24663;SDS011;12791;50.992;13.788;2022-07-29T03:47:22;13.23;;;7.82;;
24663;SDS011;12791;50.992;13.788;2022-07-29T03:49:52;11.50;;;8.68;;
24663;SDS011;12791;50.992;13.788;2022-07-29T03:52:22;11.65;;;8.75;;
24663;SDS011;12791;50.992;13.788;2022-07-29T03:54:49;11.02;;;8.38;;
24663;SDS011;12791;50.992;13.788;2022-07-29T03:57:16;10.55;;;8.43;;
24663;SDS011;12791;50.992;13.788;2022-07-29T03:59:46;12.25;;;9.50;;
24663;SDS011;12791;50.992;13.788;2022-07-29T04:02:13;12.90;;;9.10;;
24663;SDS011;12791;50.992;13.788;2022-07-29T04:04:40;11.82;;;9.75;;
24663;SDS011;12791;50.992;13.788;2022-07-29T04:07:06;10.43;;;9.30;;
24663;SDS011;12791;50.992;13.788;2022-07-29T04:09:37;13.40;;;9.23;;
24663;SDS011;12791;50.992;13.788;2022-07-29T04:12:04;11.35;;;9.57;;
24663;SDS011;12791;50.992;13.788;2022-07-29T04:14:31;12.60;;;10.73;;
24663;SDS011;12791;50.992;13.788;2022-07-29T04:17:00;16.45;;;11.25;;
24663;SDS011;12791;50.992;13.788;2022-07-29T04:19:27;16.25;;;12.68;;
24663;SDS011;12791;50.992;13.788;2022-07-29T04:21:53;16.45;;;13.65;;
24663;SDS011;12791;50.992;13.788;2022-07-29T04:24:20;18.85;;;13.38;;
24663;SDS011;12791;50.992;13.788;2022-07-29T04:26:47;14.68;;;12.00;;
24663;SDS011;12791;50.992;13.788;2022-07-29T04:29:13;15.88;;;11.80;;
24663;SDS011;12791;50.992;13.788;2022-07-29T04:31:40;14.85;;;11.77;;
24663;SDS011;12791;50.992;13.788;2022-07-29T04:34:09;16.77;;;11.73;;
24663;SDS011;12791;50.992;13.788;2022-07-29T04:36:36;17.27;;;12.57;;
24663;SDS011;12791;50.992;13.788;2022-07-29T04:39:03;16.67;;;13.63;;
24663;SDS011;12791;50.992;13.788;2022-07-29T04:41:30;22.88;;;15.93;;
24663;SDS011;12791;50.992;13.788;2022-07-29T04:43:57;20.83;;;17.98;;
24663;SDS011;12791;50.992;13.788;2022-07-29T04:46:25;26.05;;;18.00;;
24663;SDS011;12791;50.992;13.788;2022-07-29T04:48:52;24.77;;;17.92;;
24663;SDS011;12791;50.992;13.788;2022-07-29T04:51:20;28.92;;;19.33;;
24663;SDS011;12791;50.992;13.788;2022-07-29T04:53:47;22.35;;;19.38;;
24663;SDS011;12791;50.992;13.788;2022-07-29T04:56:13;27.10;;;21.70;;
24663;SDS011;12791;50.992;13.788;2022-07-29T04:58:40;22.75;;;18.77;;
24663;SDS011;12791;50.992;13.788;2022-07-29T05:01:07;26.88;;;21.20;;
24663;SDS011;12791;50.992;13.788;2022-07-29T05:03:33;30.42;;;22.45;;
24663;SDS011;12791;50.992;13.788;2022-07-29T05:06:00;31.08;;;24.75;;
24663;SDS011;12791;50.992;13.788;2022-07-29T05:08:28;41.80;;;29.02;;
24663;SDS011;12791;50.992;13.788;2022-07-29T05:10:55;54.70;;;41.53;;
24663;SDS011;12791;50.992;13.788;2022-07-29T05:13:21;54.67;;;38.95;;
24663;SDS011;12791;50.992;13.788;2022-07-29T05:15:48;54.10;;;39.03;;
24663;SDS011;12791;50.992;13.788;2022-07-29T05:18:15;44.97;;;33.90;;
24663;SDS011;12791;50.992;13.788;2022-07-29T05:20:42;56.28;;;40.67;;
24663;SDS011;12791;50.992;13.788;2022-07-29T05:23:09;58.60;;;42.95;;
24663;SDS011;12791;50.992;13.788;2022-07-29T05:25:38;62.25;;;45.05;;
24663;SDS011;12791;50.992;13.788;2022-07-29T05:28:05;58.08;;;42.30;;
24663;SDS011;12791;50.992;13.788;2022-07-29T05:30:32;64.13;;;44.90;;
24663;SDS011;12791;50.992;13.788;2022-07-29T05:32:58;53.13;;;40.28;;
24663;SDS011;12791;50.992;13.788;2022-07-29T05:35:25;55.42;;;40.92;;
24663;SDS011;12791;50.992;13.788;2022-07-29T05:37:52;57.25;;;40.30;;
24663;SDS011;12791;50.992;13.788;2022-07-29T05:40:19;46.28;;;36.22;;
24663;SDS011;12791;50.992;13.788;2022-07-29T05:42:47;49.33;;;38.08;;
24663;SDS011;12791;50.992;13.788;2022-07-29T05:45:14;64.50;;;46.85;;
24663;SDS011;12791;50.992;13.788;2022-07-29T05:47:40;54.63;;;42.30;;
24663;SDS011;12791;50.992;13.788;2022-07-29T05:50:07;63.60;;;51.38;;
24663;SDS011;12791;50.992;13.788;2022-07-29T05:52:34;92.03;;;65.70;;
24663;SDS011;12791;50.992;13.788;2022-07-29T05:55:01;98.68;;;73.88;;
24663;SDS011;12791;50.992;13.788;2022-07-29T05:57:29;105.18;;;78.35;;
24663;SDS011;12791;50.992;13.788;2022-07-29T05:59:57;116.03;;;82.88;;
24663;SDS011;12791;50.992;13.788;2022-07-29T06:02:24;132.63;;;94.88;;
24663;SDS011;12791;50.992;13.788;2022-07-29T06:04:50;136.48;;;100.63;;
24663;SDS011;12791;50.992;13.788;2022-07-29T06:07:17;129.20;;;98.68;;
24663;SDS011;12791;50.992;13.788;2022-07-29T06:09:44;136.45;;;100.00;;
24663;SDS011;12791;50.992;13.788;2022-07-29T06:12:10;119.47;;;89.53;;
24663;SDS011;12791;50.992;13.788;2022-07-29T06:14:37;120.32;;;89.40;;
24663;SDS011;12791;50.992;13.788;2022-07-29T06:17:05;103.85;;;81.20;;
24663;SDS011;12791;50.992;13.788;2022-07-29T06:19:33;117.18;;;85.45;;
24663;SDS011;12791;50.992;13.788;2022-07-29T06:22:00;111.20;;;83.07;;
24663;SDS011;12791;50.992;13.788;2022-07-29T06:24:27;119.10;;;91.60;;
24663;SDS011;12791;50.992;13.788;2022-07-29T06:26:53;125.10;;;91.32;;
24663;SDS011;12791;50.992;13.788;2022-07-29T06:29:20;132.90;;;100.47;;
24663;SDS011;12791;50.992;13.788;2022-07-29T06:31:47;129.07;;;94.85;;
24663;SDS011;12791;50.992;13.788;2022-07-29T06:34:15;136.82;;;104.10;;
24663;SDS011;12791;50.992;13.788;2022-07-29T06:36:42;133.00;;;97.40;;
24663;SDS011;12791;50.992;13.788;2022-07-29T06:39:08;129.82;;;95.28;;
24663;SDS011;12791;50.992;13.788;2022-07-29T06:41:35;113.88;;;84.82;;
24663;SDS011;12791;50.992;13.788;2022-07-29T06:44:02;117.85;;;87.20;;
24663;SDS011;12791;50.992;13.788;2022-07-29T06:46:29;111.57;;;84.53;;
24663;SDS011;12791;50.992;13.788;2022-07-29T06:48:56;121.82;;;90.90;;
24663;SDS011;12791;50.992;13.788;2022-07-29T06:51:24;120.70;;;88.43;;
24663;SDS011;12791;50.992;13.788;2022-07-29T06:53:52;111.88;;;83.70;;
24663;SDS011;12791;50.992;13.788;2022-07-29T06:56:19;103.20;;;77.15;;
24663;SDS011;12791;50.992;13.788;2022-07-29T06:58:45;100.38;;;74.78;;
24663;SDS011;12791;50.992;13.788;2022-07-29T07:01:12;122.18;;;92.78;;
24663;SDS011;12791;50.992;13.788;2022-07-29T07:03:39;135.18;;;97.00;;
24663;SDS011;12791;50.992;13.788;2022-07-29T07:06:06;118.32;;;88.45;;
24663;SDS011;12791;50.992;13.788;2022-07-29T07:08:35;129.23;;;97.50;;
24663;SDS011;12791;50.992;13.788;2022-07-29T07:11:01;126.47;;;91.38;;
24663;SDS011;12791;50.992;13.788;2022-07-29T07:13:29;103.47;;;78.70;;
24663;SDS011;12791;50.992;13.788;2022-07-29T07:15:59;128.88;;;94.03;;
24663;SDS011;12791;50.992;13.788;2022-07-29T07:18:26;128.77;;;94.15;;
24663;SDS011;12791;50.992;13.788;2022-07-29T07:20:52;120.28;;;85.75;;
24663;SDS011;12791;50.992;13.788;2022-07-29T07:23:19;111.18;;;81.50;;
24663;SDS011;12791;50.992;13.788;2022-07-29T07:25:47;115.15;;;85.40;;
24663;SDS011;12791;50.992;13.788;2022-07-29T07:28:14;100.38;;;76.03;;
24663;SDS011;12791;50.992;13.788;2022-07-29T07:30:40;97.78;;;74.80;;
24663;SDS011;12791;50.992;13.788;2022-07-29T07:33:07;105.68;;;80.22;;
24663;SDS011;12791;50.992;13.788;2022-07-29T07:35:34;96.25;;;72.85;;
24663;SDS011;12791;50.992;13.788;2022-07-29T07:38:01;96.13;;;71.25;;
24663;SDS011;12791;50.992;13.788;2022-07-29T07:40:27;112.35;;;85.20;;
24663;SDS011;12791;50.992;13.788;2022-07-29T07:42:55;109.15;;;82.40;;
24663;SDS011;12791;50.992;13.788;2022-07-29T07:45:22;125.65;;;87.80;;
24663;SDS011;12791;50.992;13.788;2022-07-29T07:47:49;101.55;;;75.60;;
24663;SDS011;12791;50.992;13.788;2022-07-29T07:50:16;88.78;;;67.75;;
24663;SDS011;12791;50.992;13.788;2022-07-29T07:52:47;95.65;;;72.15;;
24663;SDS011;12791;50.992;13.788;2022-07-29T07:55:15;92.57;;;71.60;;
24663;SDS011;12791;50.992;13.788;2022-07-29T07:57:42;98.68;;;75.55;;
24663;SDS011;12791;50.992;13.788;2022-07-29T08:00:11;95.07;;;70.13;;
24663;SDS011;12791;50.992;13.788;2022-07-29T08:02:39;85.10;;;65.90;;
24663;SDS011;12791;50.992;13.788;2022-07-29T08:05:07;99.68;;;76.43;;
24663;SDS011;12791;50.992;13.788;2022-07-29T08:07:35;107.68;;;78.40;;
24663;SDS011;12791;50.992;13.788;2022-07-29T08:10:03;98.07;;;74.40;;
24663;SDS011;12791;50.992;13.788;2022-07-29T08:12:30;96.95;;;69.82;;
24663;SDS011;12791;50.992;13.788;2022-07-29T08:14:56;95.22;;;71.03;;
24663;SDS011;12791;50.992;13.788;2022-07-29T08:17:24;75.65;;;59.70;;
24663;SDS011;12791;50.992;13.788;2022-07-29T08:19:51;80.70;;;59.47;;
24663;SDS011;12791;50.992;13.788;2022-07-29T08:22:18;75.10;;;57.55;;
24663;SDS011;12791;50.992;13.788;2022-07-29T08:24:45;73.43;;;54.70;;
24663;SDS011;12791;50.992;13.788;2022-07-29T08:27:17;68.10;;;54.20;;
24663;SDS011;12791;50.992;13.788;2022-07-29T08:29:45;62.00;;;46.97;;
24663;SDS011;12791;50.992;13.788;2022-07-29T08:32:11;63.45;;;45.38;;
24663;SDS011;12791;50.992;13.788;2022-07-29T08:34:39;51.72;;;39.05;;
24663;SDS011;12791;50.992;13.788;2022-07-29T08:37:06;56.80;;;40.65;;
24663;SDS011;12791;50.992;13.788;2022-07-29T08:39:33;48.50;;;37.67;;
24663;SDS011;12791;50.992;13.788;2022-07-29T08:41:59;48.17;;;37.90;;
24663;SDS011;12791;50.992;13.788;2022-07-29T08:44:26;50.38;;;34.35;;
24663;SDS011;12791;50.992;13.788;2022-07-29T08:46:53;44.08;;;33.63;;
24663;SDS011;12791;50.992;13.788;2022-07-29T08:49:20;45.25;;;32.90;;
24663;SDS011;12791;50.992;13.788;2022-07-29T08:51:47;37.50;;;28.55;;
24663;SDS011;12791;50.992;13.788;2022-07-29T08:54:16;41.70;;;32.00;;
24663;SDS011;12791;50.992;13.788;2022-07-29T08:56:43;35.53;;;28.52;;
24663;SDS011;12791;50.992;13.788;2022-07-29T08:59:10;36.63;;;28.33;;
24663;SDS011;12791;50.992;13.788;2022-07-29T09:01:38;29.08;;;24.48;;
24663;SDS011;12791;50.992;13.788;2022-07-29T09:04:10;28.88;;;23.17;;
24663;SDS011;12791;50.992;13.788;2022-07-29T09:06:42;35.05;;;24.92;;
24663;SDS011;12791;50.992;13.788;2022-07-29T09:09:12;33.88;;;23.02;;
24663;SDS011;12791;50.992;13.788;2022-07-29T09:11:39;28.25;;;19.70;;
24663;SDS011;12791;50.992;13.788;2022-07-29T09:14:07;25.13;;;19.00;;
24663;SDS011;12791;50.992;13.788;2022-07-29T09:16:44;27.27;;;19.73;;
24663;SDS011;12791;50.992;13.788;2022-07-29T09:19:19;20.13;;;16.95;;
24663;SDS011;12791;50.992;13.788;2022-07-29T09:21:47;25.75;;;18.30;;
24663;SDS011;12791;50.992;13.788;2022-07-29T09:24:35;31.73;;;23.50;;
24663;SDS011;12791;50.992;13.788;2022-07-29T09:27:07;29.33;;;22.23;;
24663;SDS011;12791;50.992;13.788;2022-07-29T09:29:35;33.22;;;23.98;;
24663;SDS011;12791;50.992;13.788;2022-07-29T09:32:05;39.58;;;28.88;;
24663;SDS011;12791;50.992;13.788;2022-07-29T09:34:33;36.47;;;26.92;;
24663;SDS011;12791;50.992;13.788;2022-07-29T09:37:00;33.63;;;24.40;;
24663;SDS011;12791;50.992;13.788;2022-07-29T09:39:29;34.45;;;25.13;;
24663;SDS011;12791;50.992;13.788;2022-07-29T09:41:59;30.15;;;22.60;;
24663;SDS011;12791;50.992;13.788;2022-07-29T09:44:28;41.40;;;27.88;;
24663;SDS011;12791;50.992;13.788;2022-07-29T09:47:07;35.25;;;27.10;;
24663;SDS011;12791;50.992;13.788;2022-07-29T09:49:34;33.55;;;24.77;;
24663;SDS011;12791;50.992;13.788;2022-07-29T09:52:05;32.17;;;22.88;;
24663;SDS011;12791;50.992;13.788;2022-07-29T09:54:34;29.13;;;20.25;;
24663;SDS011;12791;50.992;13.788;2022-07-29T09:57:05;30.95;;;21.13;;
24663;SDS011;12791;50.992;13.788;2022-07-29T09:59:34;29.02;;;20.23;;
24663;SDS011;12791;50.992;13.788;2022-07-29T10:02:01;30.02;;;22.33;;
24663;SDS011;12791;50.992;13.788;2022-07-29T10:04:38;30.33;;;20.98;;
24663;SDS011;12791;50.992;13.788;2022-07-29T10:07:05;22.67;;;18.77;;
24663;SDS011;12791;50.992;13.788;2022-07-29T10:09:34;23.23;;;18.27;;
24663;SDS011;12791;50.992;13.788;2022-07-29T10:12:05;21.80;;;16.17;;
24663;SDS011;12791;50.992;13.788;2022-07-29T10:14:38;17.15;;;14.40;;
24663;SDS011;12791;50.992;13.788;2022-07-29T10:17:05;17.35;;;13.25;;
24663;SDS011;12791;50.992;13.788;2022-07-29T10:19:34;19.20;;;13.45;;
24663;SDS011;12791;50.992;13.788;2022-07-29T10:22:04;15.65;;;12.75;;
24663;SDS011;12791;50.992;13.788;2022-07-29T10:24:34;18.70;;;11.90;;
24663;SDS011;12791;50.992;13.788;2022-07-29T10:27:03;6.30;;;3.95;;
24663;SDS011;12791;50.992;13.788;2022-07-29T10:29:31;7.05;;;4.88;;
24663;SDS011;12791;50.992;13.788;2022-07-29T10:32:07;10.30;;;8.15;;
24663;SDS011;12791;50.992;13.788;2022-07-29T10:34:45;9.70;;;8.43;;
24663;SDS011;12791;50.992;13.788;2022-07-29T10:37:37;2.35;;;1.75;;
24663;SDS011;12791;50.992;13.788;2022-07-29T10:43:16;1.58;;;1.48;;
24663;SDS011;12791;50.992;13.788;2022-07-29T10:45:48;1.77;;;1.63;;
24663;SDS011;12791;50.992;13.788;2022-07-29T10:48:15;4.57;;;1.65;;
24663;SDS011;12791;50.992;13.788;2022-07-29T10:50:51;1.73;;;1.40;;
24663;SDS011;12791;50.992;13.788;2022-07-29T10:53:19;1.92;;;1.52;;
24663;SDS011;12791;50.992;13.788;2022-07-29T10:55:47;3.75;;;1.52;;
24663;SDS011;12791;50.992;13.788;2022-07-29T10:58:15;1.42;;;1.30;;
24663;SDS011;12791;50.992;13.788;2022-07-29T11:00:43;4.35;;;1.65;;
24663;SDS011;12791;50.992;13.788;2022-07-29T11:03:24;2.13;;;1.92;;
24663;SDS011;12791;50.992;13.788;2022-07-29T11:06:10;2.53;;;1.77;;
24663;SDS011;12791;50.992;13.788;2022-07-29T11:08:37;2.25;;;1.50;;
24663;SDS011;12791;50.992;13.788;2022-07-29T11:14:00;5.47;;;1.83;;
24663;SDS011;12791;50.992;13.788;2022-07-29T11:16:31;3.10;;;1.67;;
24663;SDS011;12791;50.992;13.788;2022-07-29T11:19:30;2.15;;;1.67;;
24663;SDS011;12791;50.992;13.788;2022-07-29T11:21:57;3.65;;;1.63;;
24663;SDS011;12791;50.992;13.788;2022-07-29T11:24:25;2.55;;;1.77;;
24663;SDS011;12791;50.992;13.788;2022-07-29T11:27:10;4.68;;;1.60;;
24663;SDS011;12791;50.992;13.788;2022-07-29T11:29:39;1.70;;;1.45;;
24663;SDS011;12791;50.992;13.788;2022-07-29T11:32:14;2.35;;;1.83;;
24663;SDS011;12791;50.992;13.788;2022-07-29T11:34:44;2.03;;;1.75;;
24663;SDS011;12791;50.992;13.788;2022-07-29T11:37:15;3.40;;;1.92;;
24663;SDS011;12791;50.992;13.788;2022-07-29T11:39:44;3.88;;;1.80;;
24663;SDS011;12791;50.992;13.788;2022-07-29T11:45:19;3.22;;;1.70;;
24663;SDS011;12791;50.992;13.788;2022-07-29T11:47:48;3.70;;;1.90;;
24663;SDS011;12791;50.992;13.788;2022-07-29T11:50:18;4.60;;;1.83;;
24663;SDS011;12791;50.992;13.788;2022-07-29T11:52:54;3.67;;;1.90;;
24663;SDS011;12791;50.992;13.788;2022-07-29T11:55:21;5.90;;;1.85;;
24663;SDS011;12791;50.992;13.788;2022-07-29T11:57:50;2.65;;;1.70;;
24663;SDS011;12791;50.992;13.788;2022-07-29T12:00:22;2.03;;;1.77;;
24663;SDS011;12791;50.992;13.788;2022-07-29T12:02:51;5.50;;;1.90;;
24663;SDS011;12791;50.992;13.788;2022-07-29T12:05:18;1.75;;;1.65;;
24663;SDS011;12791;50.992;13.788;2022-07-29T12:07:45;2.15;;;2.03;;
24663;SDS011;12791;50.992;13.788;2022-07-29T12:10:13;2.35;;;2.03;;
24663;SDS011;12791;50.992;13.788;2022-07-29T12:12:40;2.28;;;1.95;;
24663;SDS011;12791;50.992;13.788;2022-07-29T12:15:11;2.35;;;1.80;;
24663;SDS011;12791;50.992;13.788;2022-07-29T12:20:06;3.65;;;1.77;;
24663;SDS011;12791;50.992;13.788;2022-07-29T12:22:35;2.08;;;1.77;;
24663;SDS011;12791;50.992;13.788;2022-07-29T12:25:05;3.13;;;1.65;;
24663;SDS011;12791;50.992;13.788;2022-07-29T12:27:33;1.65;;;1.58;;
24663;SDS011;12791;50.992;13.788;2022-07-29T12:30:01;2.65;;;2.17;;
24663;SDS011;12791;50.992;13.788;2022-07-29T12:32:34;2.05;;;1.83;;
24663;SDS011;12791;50.992;13.788;2022-07-29T12:35:03;2.13;;;1.90;;
24663;SDS011;12791;50.992;13.788;2022-07-29T12:37:30;3.42;;;1.77;;
24663;SDS011;12791;50.992;13.788;2022-07-29T12:39:59;3.47;;;1.80;;
24663;SDS011;12791;50.992;13.788;2022-07-29T12:42:25;1.88;;;1.77;;
24663;SDS011;12791;50.992;13.788;2022-07-29T12:44:52;2.10;;;1.80;;
24663;SDS011;12791;50.992;13.788;2022-07-29T12:47:19;5.10;;;2.38;;
24663;SDS011;12791;50.992;13.788;2022-07-29T12:49:48;2.90;;;1.75;;
24663;SDS011;12791;50.992;13.788;2022-07-29T12:52:25;2.90;;;2.00;;
24663;SDS011;12791;50.992;13.788;2022-07-29T12:54:53;2.10;;;1.58;;
24663;SDS011;12791;50.992;13.788;2022-07-29T12:57:20;2.03;;;1.80;;
24663;SDS011;12791;50.992;13.788;2022-07-29T12:59:58;2.47;;;1.92;;
24663;SDS011;12791;50.992;13.788;2022-07-29T13:02:30;2.00;;;1.63;;
24663;SDS011;12791;50.992;13.788;2022-07-29T13:04:58;1.92;;;1.80;;
24663;SDS011;12791;50.992;13.788;2022-07-29T13:07:26;3.75;;;2.10;;
24663;SDS011;12791;50.992;13.788;2022-07-29T13:09:54;2.22;;;2.03;;
24663;SDS011;12791;50.992;13.788;2022-07-29T13:12:37;3.28;;;1.80;;
24663;SDS011;12791;50.992;13.788;2022-07-29T13:15:12;1.77;;;1.67;;
24663;SDS011;12791;50.992;13.788;2022-07-29T13:17:40;3.60;;;1.65;;
24663;SDS011;12791;50.992;13.788;2022-07-29T13:20:10;3.25;;;1.40;;
24663;SDS011;12791;50.992;13.788;2022-07-29T13:22:39;3.85;;;1.65;;
24663;SDS011;12791;50.992;13.788;2022-07-29T13:25:07;1.67;;;1.58;;
24663;SDS011;12791;50.992;13.788;2022-07-29T13:27:35;2.53;;;1.77;;
24663;SDS011;12791;50.992;13.788;2022-07-29T13:30:03;1.50;;;1.40;;
24663;SDS011;12791;50.992;13.788;2022-07-29T13:32:31;2.10;;;2.00;;
24663;SDS011;12791;50.992;13.788;2022-07-29T13:35:00;2.03;;;1.83;;
24663;SDS011;12791;50.992;13.788;2022-07-29T13:37:29;4.20;;;2.05;;
24663;SDS011;12791;50.992;13.788;2022-07-29T13:39:57;2.13;;;1.55;;
24663;SDS011;12791;50.992;13.788;2022-07-29T13:42:25;2.20;;;1.90;;
24663;SDS011;12791;50.992;13.788;2022-07-29T13:44:52;1.70;;;1.50;;
24663;SDS011;12791;50.992;13.788;2022-07-29T13:47:19;1.75;;;1.65;;
24663;SDS011;12791;50.992;13.788;2022-07-29T13:49:46;1.60;;;1.55;;
24663;SDS011;12791;50.992;13.788;2022-07-29T13:52:13;2.20;;;2.00;;
24663;SDS011;12791;50.992;13.788;2022-07-29T13:54:41;2.50;;;1.67;;
24663;SDS011;12791;50.992;13.788;2022-07-29T13:57:08;2.63;;;1.52;;
24663;SDS011;12791;50.992;13.788;2022-07-29T13:59:36;3.92;;;1.90;;
24663;SDS011;12791;50.992;13.788;2022-07-29T14:02:03;2.00;;;1.80;;
24663;SDS011;12791;50.992;13.788;2022-07-29T14:04:30;3.90;;;1.80;;
24663;SDS011;12791;50.992;13.788;2022-07-29T14:06:57;2.35;;;1.67;;
24663;SDS011;12791;50.992;13.788;2022-07-29T14:09:23;2.30;;;1.52;;
24663;SDS011;12791;50.992;13.788;2022-07-29T14:11:51;2.08;;;1.80;;
24663;SDS011;12791;50.992;13.788;2022-07-29T14:14:18;2.17;;;1.98;;
24663;SDS011;12791;50.992;13.788;2022-07-29T14:16:45;2.15;;;1.95;;
24663;SDS011;12791;50.992;13.788;2022-07-29T14:19:12;1.33;;;1.23;;
24663;SDS011;12791;50.992;13.788;2022-07-29T14:21:39;2.80;;;1.70;;
24663;SDS011;12791;50.992;13.788;2022-07-29T14:24:06;1.83;;;1.73;;
24663;SDS011;12791;50.992;13.788;2022-07-29T14:26:34;2.42;;;1.90;;
24663;SDS011;12791;50.992;13.788;2022-07-29T14:29:02;1.90;;;1.80;;
24663;SDS011;12791;50.992;13.788;2022-07-29T14:31:29;5.30;;;2.17;;
24663;SDS011;12791;50.992;13.788;2022-07-29T14:33:56;1.73;;;1.63;;
24663;SDS011;12791;50.992;13.788;2022-07-29T14:36:22;1.80;;;1.70;;
24663;SDS011;12791;50.992;13.788;2022-07-29T14:38:49;3.63;;;1.73;;
24663;SDS011;12791;50.992;13.788;2022-07-29T14:41:15;2.47;;;2.28;;